TimeCDT,TemperatureF,Dew PointF,Humidity,Sea Level PressureIn,VisibilityMPH,Wind Direction,Wind SpeedMPH,Gust SpeedMPH,PrecipitationIn,Events,Conditions,WindDirDegrees,DateUTC
12:52 AM,34.0,26.1,73,-9999,10.0,Calm,Calm,-,N/A,,Clear,0,2012-10-28 05:52:00
1:52 AM,36.0,25.0,64,-9999,10.0,NNE,3.5,-,N/A,,Clear,20,2012-10-28 06:52:00
2:52 AM,35.1,24.1,64,-9999,10.0,Calm,Calm,-,N/A,,Clear,0,2012-10-28 07:52:00
3:52 AM,30.0,24.1,79,-9999,10.0,Calm,Calm,-,N/A,,Clear,0,2012-10-28 08:52:00
4:52 AM,30.0,24.1,79,-9999,10.0,Calm,Calm,-,N/A,,Clear,0,2012-10-28 09:52:00
5:52 AM,28.9,24.1,82,30.36,10.0,Calm,Calm,-,N/A,,Clear,0,2012-10-28 10:52:00
6:52 AM,28.9,23.0,78,30.36,10.0,Calm,Calm,-,N/A,,Clear,0,2012-10-28 11:52:00
7:52 AM,28.9,21.9,75,30.37,10.0,Calm,Calm,-,N/A,,Clear,0,2012-10-28 12:52:00
8:52 AM,34.0,23.0,64,30.37,10.0,NNE,5.8,-,N/A,,Scattered Clouds,30,2012-10-28 13:52:00
9:52 AM,39.9,26.1,58,30.37,10.0,NNE,6.9,-,N/A,,Scattered Clouds,30,2012-10-28 14:52:00
10:52 AM,43.0,27.0,53,30.38,10.0,NNE,8.1,-,N/A,,Scattered Clouds,30,2012-10-28 15:52:00
11:52 AM,46.9,28.9,50,30.37,10.0,NNE,11.5,-,N/A,,Clear,30,2012-10-28 16:52:00
12:52 PM,48.9,28.9,46,30.35,10.0,NE,10.4,-,N/A,,Partly Cloudy,40,2012-10-28 17:52:00
1:52 PM,50.0,28.9,44,30.30,10.0,NE,6.9,-,N/A,,Scattered Clouds,50,2012-10-28 18:52:00
2:52 PM,50.0,27.0,41,30.28,10.0,Variable,3.5,-,N/A,,Scattered Clouds,0,2012-10-28 19:52:00
3:52 PM,48.9,28.0,44,30.29,10.0,NE,8.1,-,N/A,,Partly Cloudy,50,2012-10-28 20:52:00
4:52 PM,48.9,27.0,43,30.29,10.0,NE,8.1,-,N/A,,Clear,40,2012-10-28 21:52:00
5:52 PM,46.0,26.1,46,30.29,10.0,NE,4.6,-,N/A,,Clear,40,2012-10-28 22:52:00
6:52 PM,45.0,26.1,48,30.30,8.0,North,3.5,-,N/A,,Clear,10,2012-10-28 23:52:00
7:52 PM,37.9,28.9,70,30.31,10.0,Calm,Calm,-,N/A,,Clear,0,2012-10-29 00:52:00
8:52 PM,34.0,28.9,82,30.32,10.0,Calm,Calm,-,N/A,,Clear,0,2012-10-29 01:52:00
9:52 PM,32.0,28.0,85,30.32,10.0,Calm,Calm,-,N/A,,Clear,0,2012-10-29 02:52:00
10:52 PM,32.0,27.0,82,30.33,10.0,Calm,Calm,-,N/A,,Clear,0,2012-10-29 03:52:00
11:52 PM,30.0,26.1,85,30.33,10.0,Calm,Calm,-,N/A,,Clear,0,2012-10-29 04:52:00